sensor_id;sensor_type;location;lat;lon;timestamp;pressure;altitude;pressure_sealevel;temperature;humidity
12247;BME280;6186;52.022;4.692;2023-03-16T00:00:36;101808.44;;;7.09;57.23
12247;BME280;6186;52.022;4.692;2023-03-16T00:03:01;101798.81;;;7.07;57.42
12247;BME280;6186;52.022;4.692;2023-03-16T00:05:27;101795.34;;;7.08;57.55
12247;BME280;6186;52.022;4.692;2023-03-16T00:07:52;101794.47;;;7.07;57.37
12247;BME280;6186;52.022;4.692;2023-03-16T00:10:18;101783.13;;;7.07;57.45
12247;BME280;6186;52.022;4.692;2023-03-16T00:12:43;101783.13;;;7.04;57.36
12247;BME280;6186;52.022;4.692;2023-03-16T00:15:10;101784.84;;;7.05;57.42
12247;BME280;6186;52.022;4.692;2023-03-16T00:17:36;101784.00;;;7.06;57.71
12247;BME280;6186;52.022;4.692;2023-03-16T00:20:01;101775.25;;;7.07;57.54
12247;BME280;6186;52.022;4.692;2023-03-16T00:22:31;101777.88;;;7.07;57.80
12247;BME280;6186;52.022;4.692;2023-03-16T00:24:56;101777.88;;;7.05;57.67
12247;BME280;6186;52.022;4.692;2023-03-16T00:27:23;101779.63;;;7.05;58.00
12247;BME280;6186;52.022;4.692;2023-03-16T00:29:50;101790.09;;;7.06;58.01
12247;BME280;6186;52.022;4.692;2023-03-16T00:32:22;101785.75;;;7.05;57.73
12247;BME280;6186;52.022;4.692;2023-03-16T00:34:48;101775.22;;;7.02;57.69
12247;BME280;6186;52.022;4.692;2023-03-16T00:37:15;101772.66;;;7.07;57.83
12247;BME280;6186;52.022;4.692;2023-03-16T00:39:42;101772.66;;;7.07;57.78
12247;BME280;6186;52.022;4.692;2023-03-16T00:42:09;101764.78;;;7.05;58.22
12247;BME280;6186;52.022;4.692;2023-03-16T00:44:35;101749.94;;;6.98;58.25
12247;BME280;6186;52.022;4.692;2023-03-16T00:47:03;101751.72;;;7.05;58.36
12247;BME280;6186;52.022;4.692;2023-03-16T00:49:28;101763.91;;;7.05;58.49
12247;BME280;6186;52.022;4.692;2023-03-16T00:51:54;101751.72;;;7.04;58.53
12247;BME280;6186;52.022;4.692;2023-03-16T00:54:19;101735.97;;;6.96;58.30
12247;BME280;6186;52.022;4.692;2023-03-16T00:56:46;101742.97;;;7.06;58.80
12247;BME280;6186;52.022;4.692;2023-03-16T00:59:11;101738.63;;;7.07;58.75
12247;BME280;6186;52.022;4.692;2023-03-16T01:01:37;101736.88;;;7.07;58.80
12247;BME280;6186;52.022;4.692;2023-03-16T01:04:03;101725.53;;;7.07;58.57
12247;BME280;6186;52.022;4.692;2023-03-16T01:06:28;101731.66;;;7.07;58.88
12247;BME280;6186;52.022;4.692;2023-03-16T01:08:54;101723.78;;;7.06;59.14
12247;BME280;6186;52.022;4.692;2023-03-16T01:11:21;101720.28;;;7.07;58.76
12247;BME280;6186;52.022;4.692;2023-03-16T01:13:48;101722.06;;;7.09;59.14
12247;BME280;6186;52.022;4.692;2023-03-16T01:16:15;101718.56;;;7.10;59.01
12247;BME280;6186;52.022;4.692;2023-03-16T01:18:42;101710.72;;;7.07;58.97
12247;BME280;6186;52.022;4.692;2023-03-16T01:21:08;101719.44;;;7.11;59.19
12247;BME280;6186;52.022;4.692;2023-03-16T01:23:35;101714.22;;;7.09;59.13
12247;BME280;6186;52.022;4.692;2023-03-16T01:26:01;101715.94;;;7.09;59.22
12247;BME280;6186;52.022;4.692;2023-03-16T01:28:29;101713.31;;;7.09;59.69
12247;BME280;6186;52.022;4.692;2023-03-16T01:31:00;101702.88;;;7.13;59.20
12247;BME280;6186;52.022;4.692;2023-03-16T01:33:27;101699.38;;;7.13;59.36
12247;BME280;6186;52.022;4.692;2023-03-16T01:35:58;101694.13;;;7.07;59.65
12247;BME280;6186;52.022;4.692;2023-03-16T01:38:24;101693.25;;;7.12;59.58
12247;BME280;6186;52.022;4.692;2023-03-16T01:40:51;101684.56;;;7.13;59.50
12247;BME280;6186;52.022;4.692;2023-03-16T01:43:19;101685.41;;;7.12;59.98
12247;BME280;6186;52.022;4.692;2023-03-16T01:48:30;101674.06;;;7.07;59.77
12247;BME280;6186;52.022;4.692;2023-03-16T01:51:04;101676.69;;;7.07;59.90
12247;BME280;6186;52.022;4.692;2023-03-16T01:53:32;101675.78;;;7.07;60.36
12247;BME280;6186;52.022;4.692;2023-03-16T01:56:00;101670.56;;;7.08;60.17
12247;BME280;6186;52.022;4.692;2023-03-16T01:58:29;101661.81;;;7.06;60.52
12247;BME280;6186;52.022;4.692;2023-03-16T02:00:55;101667.06;;;7.06;60.44
12247;BME280;6186;52.022;4.692;2023-03-16T02:03:24;101658.34;;;7.06;60.68
12247;BME280;6186;52.022;4.692;2023-03-16T02:05:58;101643.50;;;6.97;60.70
12247;BME280;6186;52.022;4.692;2023-03-16T02:08:26;101650.47;;;7.04;61.04
12247;BME280;6186;52.022;4.692;2023-03-16T02:10:54;101652.25;;;7.05;61.15
12247;BME280;6186;52.022;4.692;2023-03-16T02:13:24;101656.59;;;7.03;61.17
12247;BME280;6186;52.022;4.692;2023-03-16T02:15:50;101642.63;;;6.98;61.53
12247;BME280;6186;52.022;4.692;2023-03-16T02:18:17;101645.25;;;7.01;61.16
12247;BME280;6186;52.022;4.692;2023-03-16T02:23:14;101634.75;;;7.04;61.72
12247;BME280;6186;52.022;4.692;2023-03-16T02:28:40;101639.16;;;7.05;62.26
12247;BME280;6186;52.022;4.692;2023-03-16T02:31:12;101631.31;;;7.04;62.35
12247;BME280;6186;52.022;4.692;2023-03-16T02:33:38;101628.69;;;7.04;62.11
12247;BME280;6186;52.022;4.692;2023-03-16T02:36:05;101627.78;;;7.05;62.57
12247;BME280;6186;52.022;4.692;2023-03-16T02:38:30;101628.69;;;7.05;62.57
12247;BME280;6186;52.022;4.692;2023-03-16T02:40:59;101618.22;;;7.05;62.79
12247;BME280;6186;52.022;4.692;2023-03-16T02:43:28;101620.81;;;7.05;63.16
12247;BME280;6186;52.022;4.692;2023-03-16T02:45:59;101627.78;;;7.05;62.72
12247;BME280;6186;52.022;4.692;2023-03-16T02:48:32;101620.81;;;7.05;63.23
12247;BME280;6186;52.022;4.692;2023-03-16T02:51:00;101631.28;;;7.07;63.45
12247;BME280;6186;52.022;4.692;2023-03-16T02:53:25;101617.31;;;7.00;63.23
12247;BME280;6186;52.022;4.692;2023-03-16T02:55:50;101623.44;;;7.05;63.35
12247;BME280;6186;52.022;4.692;2023-03-16T02:58:16;101617.34;;;7.02;63.41
12247;BME280;6186;52.022;4.692;2023-03-16T03:00:42;101619.97;;;7.08;63.69
12247;BME280;6186;52.022;4.692;2023-03-16T03:03:07;101613.84;;;7.07;63.78
12247;BME280;6186;52.022;4.692;2023-03-16T03:05:34;101621.69;;;7.10;63.93
12247;BME280;6186;52.022;4.692;2023-03-16T03:07:59;101623.47;;;7.11;64.00
12247;BME280;6186;52.022;4.692;2023-03-16T03:10:25;101622.59;;;7.11;64.43
12247;BME280;6186;52.022;4.692;2023-03-16T03:12:50;101625.19;;;7.12;64.10
12247;BME280;6186;52.022;4.692;2023-03-16T03:15:17;101614.72;;;7.12;64.16
12247;BME280;6186;52.022;4.692;2023-03-16T03:17:43;101612.09;;;7.12;64.57
12247;BME280;6186;52.022;4.692;2023-03-16T03:20:10;101612.09;;;7.12;64.37
12247;BME280;6186;52.022;4.692;2023-03-16T03:22:42;101600.75;;;7.07;64.48
12247;BME280;6186;52.022;4.692;2023-03-16T03:25:09;101603.38;;;7.12;64.16
12247;BME280;6186;52.022;4.692;2023-03-16T03:27:35;101599.91;;;7.13;64.67
12247;BME280;6186;52.022;4.692;2023-03-16T03:30:00;101603.38;;;7.12;64.57
12247;BME280;6186;52.022;4.692;2023-03-16T03:32:26;101599.91;;;7.11;64.79
12247;BME280;6186;52.022;4.692;2023-03-16T03:34:51;101597.25;;;7.10;64.73
12247;BME280;6186;52.022;4.692;2023-03-16T03:37:17;101579.81;;;7.04;64.76
12247;BME280;6186;52.022;4.692;2023-03-16T03:39:42;101593.78;;;7.08;64.65
12247;BME280;6186;52.022;4.692;2023-03-16T03:42:10;101599.88;;;7.07;65.14
12247;BME280;6186;52.022;4.692;2023-03-16T03:44:36;101586.81;;;7.05;65.04
12247;BME280;6186;52.022;4.692;2023-03-16T03:47:02;101593.78;;;7.03;65.30
12247;BME280;6186;52.022;4.692;2023-03-16T03:49:28;101586.78;;;7.02;65.47
12247;BME280;6186;52.022;4.692;2023-03-16T03:51:53;101581.56;;;7.01;65.94
12247;BME280;6186;52.022;4.692;2023-03-16T03:54:20;101580.69;;;7.02;65.68
12247;BME280;6186;52.022;4.692;2023-03-16T03:56:45;101577.19;;;7.01;65.78
12247;BME280;6186;52.022;4.692;2023-03-16T03:59:10;101570.19;;;7.00;66.38
12247;BME280;6186;52.022;4.692;2023-03-16T04:01:36;101573.69;;;7.01;66.57
12247;BME280;6186;52.022;4.692;2023-03-16T04:04:01;101563.22;;;7.01;66.54
12247;BME280;6186;52.022;4.692;2023-03-16T04:06:26;101553.63;;;7.03;66.68
12247;BME280;6186;52.022;4.692;2023-03-16T04:08:52;101563.22;;;7.02;66.64
12247;BME280;6186;52.022;4.692;2023-03-16T04:11:19;101564.97;;;7.03;66.97
12247;BME280;6186;52.022;4.692;2023-03-16T04:13:45;101563.22;;;7.02;67.04
12247;BME280;6186;52.022;4.692;2023-03-16T04:16:10;101563.25;;;7.05;67.41
12247;BME280;6186;52.022;4.692;2023-03-16T04:18:40;101570.22;;;7.05;67.42
12247;BME280;6186;52.022;4.692;2023-03-16T04:21:07;101568.47;;;7.04;67.73
12247;BME280;6186;52.022;4.692;2023-03-16T04:23:37;101559.72;;;7.00;67.74
12247;BME280;6186;52.022;4.692;2023-03-16T04:26:02;101561.47;;;7.03;68.26
12247;BME280;6186;52.022;4.692;2023-03-16T04:28:29;101558.00;;;7.04;68.22
12247;BME280;6186;52.022;4.692;2023-03-16T04:31:03;101544.03;;;6.99;68.55
12247;BME280;6186;52.022;4.692;2023-03-16T04:33:31;101544.91;;;7.02;68.71
12247;BME280;6186;52.022;4.692;2023-03-16T04:36:00;101541.44;;;7.03;69.01
12247;BME280;6186;52.022;4.692;2023-03-16T04:38:27;101543.16;;;7.04;68.80
12247;BME280;6186;52.022;4.692;2023-03-16T04:40:52;101541.41;;;7.06;69.38
12247;BME280;6186;52.022;4.692;2023-03-16T04:43:18;101539.66;;;7.02;69.45
12247;BME280;6186;52.022;4.692;2023-03-16T04:45:43;101516.13;;;6.98;69.47
12247;BME280;6186;52.022;4.692;2023-03-16T04:48:09;101536.19;;;7.05;70.00
12247;BME280;6186;52.022;4.692;2023-03-16T04:50:35;101530.09;;;7.01;70.04
12247;BME280;6186;52.022;4.692;2023-03-16T04:53:00;101532.69;;;7.01;70.23
12247;BME280;6186;52.022;4.692;2023-03-16T04:55:26;101540.56;;;7.01;70.25
12247;BME280;6186;52.022;4.692;2023-03-16T04:57:51;101530.97;;;6.94;70.42
12247;BME280;6186;52.022;4.692;2023-03-16T05:00:17;101537.94;;;6.98;71.06
12247;BME280;6186;52.022;4.692;2023-03-16T05:02:45;101521.34;;;6.90;70.73
12247;BME280;6186;52.022;4.692;2023-03-16T05:05:11;101534.44;;;6.99;71.19
12247;BME280;6186;52.022;4.692;2023-03-16T05:07:36;101532.72;;;6.98;71.08
12247;BME280;6186;52.022;4.692;2023-03-16T05:10:02;101534.44;;;6.96;71.29
12247;BME280;6186;52.022;4.692;2023-03-16T05:12:27;101537.91;;;6.97;71.18
12247;BME280;6186;52.022;4.692;2023-03-16T05:14:53;101528.34;;;6.94;71.44
12247;BME280;6186;52.022;4.692;2023-03-16T05:17:18;101522.22;;;6.92;71.87
12247;BME280;6186;52.022;4.692;2023-03-16T05:19:43;101522.22;;;6.92;71.56
12247;BME280;6186;52.022;4.692;2023-03-16T05:22:09;101521.34;;;6.90;71.83
12247;BME280;6186;52.022;4.692;2023-03-16T05:24:34;101523.97;;;6.89;71.93
12247;BME280;6186;52.022;4.692;2023-03-16T05:27:01;101514.38;;;6.89;71.68
12247;BME280;6186;52.022;4.692;2023-03-16T05:29:27;101516.09;;;6.87;72.18
12247;BME280;6186;52.022;4.692;2023-03-16T05:31:55;101503.03;;;6.81;72.27
12247;BME280;6186;52.022;4.692;2023-03-16T05:34:20;101508.25;;;6.84;72.66
12247;BME280;6186;52.022;4.692;2023-03-16T05:36:46;101507.38;;;6.84;73.12
12247;BME280;6186;52.022;4.692;2023-03-16T05:39:11;101503.03;;;6.84;72.79
12247;BME280;6186;52.022;4.692;2023-03-16T05:41:37;101505.66;;;6.84;72.84
12247;BME280;6186;52.022;4.692;2023-03-16T05:44:03;101494.31;;;6.81;73.05
12247;BME280;6186;52.022;4.692;2023-03-16T05:46:28;101499.53;;;6.82;73.17
12247;BME280;6186;52.022;4.692;2023-03-16T05:48:54;101498.66;;;6.82;73.75
12247;BME280;6186;52.022;4.692;2023-03-16T05:51:19;101491.69;;;6.81;73.59
12247;BME280;6186;52.022;4.692;2023-03-16T05:53:45;101507.38;;;6.84;74.04
12247;BME280;6186;52.022;4.692;2023-03-16T05:56:10;101491.69;;;6.84;74.10
12247;BME280;6186;52.022;4.692;2023-03-16T05:58:36;101500.41;;;6.83;74.29
12247;BME280;6186;52.022;4.692;2023-03-16T06:01:02;101496.03;;;6.82;74.35
12247;BME280;6186;52.022;4.692;2023-03-16T06:03:27;101492.59;;;6.81;74.65
12247;BME280;6186;52.022;4.692;2023-03-16T06:05:53;101495.19;;;6.81;74.31
12247;BME280;6186;52.022;4.692;2023-03-16T06:08:18;101490.81;;;6.80;75.08
12247;BME280;6186;52.022;4.692;2023-03-16T06:10:45;101493.44;;;6.79;74.66
12247;BME280;6186;52.022;4.692;2023-03-16T06:13:12;101489.06;;;6.78;75.11
12247;BME280;6186;52.022;4.692;2023-03-16T06:15:37;101480.34;;;6.74;75.60
12247;BME280;6186;52.022;4.692;2023-03-16T06:18:03;101487.34;;;6.75;75.71
12247;BME280;6186;52.022;4.692;2023-03-16T06:20:28;101475.09;;;6.74;76.00
12247;BME280;6186;52.022;4.692;2023-03-16T06:22:53;101483.84;;;6.73;75.87
12247;BME280;6186;52.022;4.692;2023-03-16T06:25:19;101483.84;;;6.73;76.55
12247;BME280;6186;52.022;4.692;2023-03-16T06:27:44;101486.47;;;6.73;76.43
12247;BME280;6186;52.022;4.692;2023-03-16T06:30:11;101467.25;;;6.74;76.93
12247;BME280;6186;52.022;4.692;2023-03-16T06:32:37;101472.50;;;6.74;77.12
12247;BME280;6186;52.022;4.692;2023-03-16T06:35:06;101467.28;;;6.70;77.06
12247;BME280;6186;52.022;4.692;2023-03-16T06:37:31;101469.88;;;6.73;77.16
12247;BME280;6186;52.022;4.692;2023-03-16T06:39:57;101461.19;;;6.74;77.39
12247;BME280;6186;52.022;4.692;2023-03-16T06:42:23;101462.91;;;6.75;77.96
12247;BME280;6186;52.022;4.692;2023-03-16T06:44:48;101465.53;;;6.76;77.99
12247;BME280;6186;52.022;4.692;2023-03-16T06:47:14;101460.28;;;6.76;78.19
12247;BME280;6186;52.022;4.692;2023-03-16T06:49:39;101451.59;;;6.77;78.49
12247;BME280;6186;52.022;4.692;2023-03-16T06:52:05;101448.97;;;6.77;78.83
12247;BME280;6186;52.022;4.692;2023-03-16T06:54:30;101451.56;;;6.80;79.22
12247;BME280;6186;52.022;4.692;2023-03-16T06:56:58;101446.34;;;6.77;79.44
12247;BME280;6186;52.022;4.692;2023-03-16T06:59:23;101449.81;;;6.84;79.26
12247;BME280;6186;52.022;4.692;2023-03-16T07:01:49;101454.19;;;6.86;79.53
12247;BME280;6186;52.022;4.692;2023-03-16T07:04:15;101455.91;;;6.87;79.73
12247;BME280;6186;52.022;4.692;2023-03-16T07:06:40;101442.84;;;6.84;79.77
12247;BME280;6186;52.022;4.692;2023-03-16T07:09:07;101440.25;;;6.89;79.46
12247;BME280;6186;52.022;4.692;2023-03-16T07:11:33;101440.25;;;6.90;79.50
12247;BME280;6186;52.022;4.692;2023-03-16T07:13:58;101437.63;;;6.92;79.70
12247;BME280;6186;52.022;4.692;2023-03-16T07:16:24;101442.84;;;6.92;80.45
12247;BME280;6186;52.022;4.692;2023-03-16T07:18:50;101445.47;;;6.92;80.18
12247;BME280;6186;52.022;4.692;2023-03-16T07:21:16;101435.00;;;6.87;80.29
12247;BME280;6186;52.022;4.692;2023-03-16T07:23:41;101453.31;;;6.92;80.40
12247;BME280;6186;52.022;4.692;2023-03-16T07:26:07;101438.50;;;6.94;80.31
12247;BME280;6186;52.022;4.692;2023-03-16T07:28:33;101435.88;;;6.94;80.78
12247;BME280;6186;52.022;4.692;2023-03-16T07:30:58;101438.47;;;6.95;81.08
12247;BME280;6186;52.022;4.692;2023-03-16T07:33:24;101428.88;;;6.99;81.24
12247;BME280;6186;52.022;4.692;2023-03-16T07:35:49;101428.00;;;6.97;81.53
12247;BME280;6186;52.022;4.692;2023-03-16T07:38:16;101443.72;;;7.06;81.37
12247;BME280;6186;52.022;4.692;2023-03-16T07:40:41;101444.56;;;7.11;81.93
12247;BME280;6186;52.022;4.692;2023-03-16T07:43:06;101441.97;;;7.15;82.18
12247;BME280;6186;52.022;4.692;2023-03-16T07:45:32;101448.91;;;7.19;82.26
12247;BME280;6186;52.022;4.692;2023-03-16T07:47:57;101448.91;;;7.19;82.48
12247;BME280;6186;52.022;4.692;2023-03-16T07:50:22;101436.69;;;7.24;82.94
12247;BME280;6186;52.022;4.692;2023-03-16T07:52:48;101441.91;;;7.27;82.95
12247;BME280;6186;52.022;4.692;2023-03-16T07:55:14;101442.78;;;7.29;82.81
12247;BME280;6186;52.022;4.692;2023-03-16T07:57:40;101431.47;;;7.30;83.12
12247;BME280;6186;52.022;4.692;2023-03-16T08:00:07;101443.66;;;7.30;82.97
12247;BME280;6186;52.022;4.692;2023-03-16T08:02:33;101442.78;;;7.31;82.99
12247;BME280;6186;52.022;4.692;2023-03-16T08:04:58;101446.25;;;7.33;83.26
12247;BME280;6186;52.022;4.692;2023-03-16T08:07:24;101441.03;;;7.36;83.45
12247;BME280;6186;52.022;4.692;2023-03-16T08:09:50;101394.81;;;7.14;83.60
12247;BME280;6186;52.022;4.692;2023-03-16T08:12:16;101454.09;;;7.42;83.84
12247;BME280;6186;52.022;4.692;2023-03-16T08:14:41;101451.50;;;7.45;83.93
12247;BME280;6186;52.022;4.692;2023-03-16T08:17:10;101449.72;;;7.48;84.23
12247;BME280;6186;52.022;4.692;2023-03-16T08:19:36;101446.22;;;7.49;83.98
12247;BME280;6186;52.022;4.692;2023-03-16T08:22:03;101433.13;;;7.49;84.38
12247;BME280;6186;52.022;4.692;2023-03-16T08:24:30;101443.59;;;7.54;84.71
12247;BME280;6186;52.022;4.692;2023-03-16T08:26:56;101437.50;;;7.55;84.67
12247;BME280;6186;52.022;4.692;2023-03-16T08:29:23;101440.06;;;7.59;84.99
12247;BME280;6186;52.022;4.692;2023-03-16T08:31:49;101445.31;;;7.63;85.06
12247;BME280;6186;52.022;4.692;2023-03-16T08:34:15;101435.72;;;7.58;84.85
12247;BME280;6186;52.022;4.692;2023-03-16T08:36:42;101427.81;;;7.64;85.06
12247;BME280;6186;52.022;4.692;2023-03-16T08:39:08;101425.22;;;7.61;85.11
12247;BME280;6186;52.022;4.692;2023-03-16T08:41:34;101418.25;;;7.60;85.06
12247;BME280;6186;52.022;4.692;2023-03-16T08:43:59;101425.19;;;7.69;85.35
12247;BME280;6186;52.022;4.692;2023-03-16T08:46:26;101417.31;;;7.71;85.61
12247;BME280;6186;52.022;4.692;2023-03-16T08:48:51;101424.31;;;7.78;86.09
12247;BME280;6186;52.022;4.692;2023-03-16T08:51:20;101418.16;;;7.83;86.16
12247;BME280;6186;52.022;4.692;2023-03-16T08:53:45;101436.44;;;7.94;86.53
12247;BME280;6186;52.022;4.692;2023-03-16T08:56:12;101411.09;;;7.96;86.88
12247;BME280;6186;52.022;4.692;2023-03-16T08:58:40;101417.13;;;8.11;87.19
12247;BME280;6186;52.022;4.692;2023-03-16T09:01:11;101404.84;;;8.21;87.24
12247;BME280;6186;52.022;4.692;2023-03-16T09:03:37;101408.34;;;8.24;87.39
12247;BME280;6186;52.022;4.692;2023-03-16T09:06:06;101412.63;;;8.36;87.42
12247;BME280;6186;52.022;4.692;2023-03-16T09:08:33;101409.06;;;8.44;87.77
12247;BME280;6186;52.022;4.692;2023-03-16T09:11:14;101408.13;;;8.50;87.44
12247;BME280;6186;52.022;4.692;2023-03-16T09:13:41;101411.56;;;8.58;87.81
12247;BME280;6186;52.022;4.692;2023-03-16T09:16:08;101401.88;;;8.68;88.00
12247;BME280;6186;52.022;4.692;2023-03-16T09:18:34;101398.31;;;8.76;88.04
12247;BME280;6186;52.022;4.692;2023-03-16T09:21:02;101390.31;;;8.91;89.12
12247;BME280;6186;52.022;4.692;2023-03-16T09:23:29;101399.78;;;9.04;88.95
12247;BME280;6186;52.022;4.692;2023-03-16T09:25:59;101397.97;;;9.11;89.09
12247;BME280;6186;52.022;4.692;2023-03-16T09:28:26;101401.25;;;9.29;89.43
12247;BME280;6186;52.022;4.692;2023-03-16T09:30:53;101398.53;;;9.40;89.73
12247;BME280;6186;52.022;4.692;2023-03-16T09:33:20;101392.25;;;9.53;89.96
12247;BME280;6186;52.022;4.692;2023-03-16T09:35:46;101402.41;;;9.80;91.29
12247;BME280;6186;52.022;4.692;2023-03-16T09:38:11;101390.31;;;10.31;94.01
12247;BME280;6186;52.022;4.692;2023-03-16T09:40:36;101387.59;;;10.89;96.00
12247;BME280;6186;52.022;4.692;2023-03-16T09:43:15;101387.56;;;11.36;96.89
12247;BME280;6186;52.022;4.692;2023-03-16T09:48:21;101367.19;;;11.88;95.37
12247;BME280;6186;52.022;4.692;2023-03-16T09:50:49;101370.03;;;12.16;96.65
12247;BME280;6186;52.022;4.692;2023-03-16T09:53:37;101371.72;;;12.55;97.12
12247;BME280;6186;52.022;4.692;2023-03-16T09:56:07;101363.16;;;12.81;96.59
12247;BME280;6186;52.022;4.692;2023-03-16T09:58:34;101361.19;;;12.87;95.93
12247;BME280;6186;52.022;4.692;2023-03-16T10:06:25;101377.09;;;12.52;92.71
12247;BME280;6186;52.022;4.692;2023-03-16T10:11:42;101367.47;;;12.50;90.48
12247;BME280;6186;52.022;4.692;2023-03-16T10:14:10;101367.41;;;12.51;90.37
12247;BME280;6186;52.022;4.692;2023-03-16T10:19:53;101363.88;;;12.52;89.17
12247;BME280;6186;52.022;4.692;2023-03-16T10:22:46;101353.44;;;12.48;88.49
12247;BME280;6186;52.022;4.692;2023-03-16T10:27:39;101372.75;;;12.50;88.21
12247;BME280;6186;52.022;4.692;2023-03-16T10:32:44;101354.75;;;12.30;85.89
12247;BME280;6186;52.022;4.692;2023-03-16T10:35:30;101350.97;;;12.05;83.90
12247;BME280;6186;52.022;4.692;2023-03-16T10:37:58;101354.88;;;11.87;83.52
12247;BME280;6186;52.022;4.692;2023-03-16T10:40:24;101347.09;;;11.81;83.53
12247;BME280;6186;52.022;4.692;2023-03-16T10:42:50;101355.88;;;11.82;83.77
12247;BME280;6186;52.022;4.692;2023-03-16T10:45:22;101344.31;;;11.87;83.55
12247;BME280;6186;52.022;4.692;2023-03-16T10:47:49;101330.06;;;11.94;83.20
12247;BME280;6186;52.022;4.692;2023-03-16T10:50:15;101315.81;;;12.03;83.94
12247;BME280;6186;52.022;4.692;2023-03-16T10:52:44;101321.56;;;12.20;83.55
12247;BME280;6186;52.022;4.692;2023-03-16T10:55:23;101301.38;;;12.17;83.29
12247;BME280;6186;52.022;4.692;2023-03-16T10:57:52;101311.81;;;12.23;82.38
12247;BME280;6186;52.022;4.692;2023-03-16T11:00:25;101316.19;;;12.23;81.69
12247;BME280;6186;52.022;4.692;2023-03-16T11:02:52;101302.16;;;12.21;81.79
12247;BME280;6186;52.022;4.692;2023-03-16T11:05:25;101300.13;;;12.32;81.64
12247;BME280;6186;52.022;4.692;2023-03-16T11:10:38;101296.69;;;12.28;80.34
12247;BME280;6186;52.022;4.692;2023-03-16T11:13:18;101298.66;;;12.22;79.47
12247;BME280;6186;52.022;4.692;2023-03-16T11:16:04;101289.13;;;12.15;79.19
12247;BME280;6186;52.022;4.692;2023-03-16T11:18:34;101288.38;;;12.10;78.63
12247;BME280;6186;52.022;4.692;2023-03-16T11:21:07;101305.22;;;12.04;78.47
12247;BME280;6186;52.022;4.692;2023-03-16T11:23:39;101302.69;;;12.00;78.18
12247;BME280;6186;52.022;4.692;2023-03-16T11:26:15;101290.50;;;11.96;77.78
12247;BME280;6186;52.022;4.692;2023-03-16T11:28:49;101300.13;;;11.97;77.87
12247;BME280;6186;52.022;4.692;2023-03-16T11:31:21;101285.22;;;11.96;77.38
12247;BME280;6186;52.022;4.692;2023-03-16T11:33:52;101280.78;;;11.98;77.72
12247;BME280;6186;52.022;4.692;2023-03-16T11:36:32;101288.38;;;12.10;77.79
12247;BME280;6186;52.022;4.692;2023-03-16T11:39:32;101284.56;;;12.21;77.82
12247;BME280;6186;52.022;4.692;2023-03-16T11:42:26;101273.63;;;12.37;78.70
12247;BME280;6186;52.022;4.692;2023-03-16T11:56:12;101268.22;;;13.36;80.71
12247;BME280;6186;52.022;4.692;2023-03-16T12:07:12;101263.66;;;14.75;82.20
12247;BME280;6186;52.022;4.692;2023-03-16T12:16:01;101250.31;;;14.29;77.67
12247;BME280;6186;52.022;4.692;2023-03-16T12:18:38;101259.47;;;14.17;76.60
12247;BME280;6186;52.022;4.692;2023-03-16T12:21:15;101259.69;;;14.11;76.36
12247;BME280;6186;52.022;4.692;2023-03-16T12:23:50;101255.34;;;14.08;75.89
12247;BME280;6186;52.022;4.692;2023-03-16T12:26:17;101233.00;;;14.17;75.96
12247;BME280;6186;52.022;4.692;2023-03-16T12:28:43;101220.19;;;14.31;76.44
12247;BME280;6186;52.022;4.692;2023-03-16T12:31:10;101236.41;;;14.71;78.40
12247;BME280;6186;52.022;4.692;2023-03-16T12:34:01;101217.72;;;15.22;79.76
12247;BME280;6186;52.022;4.692;2023-03-16T12:37:28;101200.34;;;15.60;80.19
12247;BME280;6186;52.022;4.692;2023-03-16T12:39:40;101199.63;;;15.98;79.18
12247;BME280;6186;52.022;4.692;2023-03-16T12:42:31;101202.28;;;16.20;79.38
12247;BME280;6186;52.022;4.692;2023-03-16T12:45:10;101198.34;;;16.28;77.39
12247;BME280;6186;52.022;4.692;2023-03-16T12:50:15;101179.50;;;16.14;76.40
12247;BME280;6186;52.022;4.692;2023-03-16T12:52:48;101179.28;;;16.19;76.19
12247;BME280;6186;52.022;4.692;2023-03-16T12:57:47;101184.75;;;15.94;73.73
12247;BME280;6186;52.022;4.692;2023-03-16T13:00:14;101196.50;;;15.88;73.38
12247;BME280;6186;52.022;4.692;2023-03-16T13:02:43;101188.28;;;15.94;73.21
12247;BME280;6186;52.022;4.692;2023-03-16T13:05:15;101190.91;;;16.16;74.65
12247;BME280;6186;52.022;4.692;2023-03-16T13:07:50;101188.91;;;16.41;74.85
12247;BME280;6186;52.022;4.692;2023-03-16T13:10:17;101185.75;;;16.53;74.23
12247;BME280;6186;52.022;4.692;2023-03-16T13:12:45;101168.03;;;16.54;73.06
12247;BME280;6186;52.022;4.692;2023-03-16T13:17:45;101160.44;;;16.65;72.16
12247;BME280;6186;52.022;4.692;2023-03-16T13:20:31;101159.16;;;16.73;71.29
12247;BME280;6186;52.022;4.692;2023-03-16T13:25:44;101150.03;;;16.98;70.43
12247;BME280;6186;52.022;4.692;2023-03-16T13:28:14;101144.50;;;16.83;68.59
12247;BME280;6186;52.022;4.692;2023-03-16T13:30:46;101150.41;;;16.51;67.37
12247;BME280;6186;52.022;4.692;2023-03-16T13:33:22;101153.00;;;16.33;66.47
12247;BME280;6186;52.022;4.692;2023-03-16T13:35:49;101148.00;;;16.25;66.79
12247;BME280;6186;52.022;4.692;2023-03-16T13:38:18;101119.94;;;16.20;66.63
12247;BME280;6186;52.022;4.692;2023-03-16T13:40:47;101122.91;;;16.32;66.83
12247;BME280;6186;52.022;4.692;2023-03-16T13:43:18;101123.03;;;16.49;67.30
12247;BME280;6186;52.022;4.692;2023-03-16T13:45:43;101137.59;;;16.41;65.65
12247;BME280;6186;52.022;4.692;2023-03-16T13:48:13;101132.53;;;16.35;65.25
12247;BME280;6186;52.022;4.692;2023-03-16T13:50:39;101129.19;;;16.30;64.99
12247;BME280;6186;52.022;4.692;2023-03-16T13:53:20;101125.41;;;16.35;64.83
12247;BME280;6186;52.022;4.692;2023-03-16T13:55:47;101114.94;;;16.32;64.17
12247;BME280;6186;52.022;4.692;2023-03-16T13:58:20;101135.25;;;16.33;63.60
12247;BME280;6186;52.022;4.692;2023-03-16T14:00:46;101107.09;;;16.29;64.00
12247;BME280;6186;52.022;4.692;2023-03-16T14:03:17;101118.13;;;16.40;63.91
12247;BME280;6186;52.022;4.692;2023-03-16T14:05:44;101116.38;;;16.39;63.59
12247;BME280;6186;52.022;4.692;2023-03-16T14:08:28;101107.50;;;16.40;63.28
12247;BME280;6186;52.022;4.692;2023-03-16T14:10:54;101110.06;;;16.42;62.80
12247;BME280;6186;52.022;4.692;2023-03-16T14:15:46;101099.78;;;16.34;62.09
12247;BME280;6186;52.022;4.692;2023-03-16T14:18:17;101093.59;;;16.34;62.19
12247;BME280;6186;52.022;4.692;2023-03-16T14:20:54;101090.06;;;16.33;61.97